sensor_id;sensor_type;location;lat;lon;timestamp;P1;durP1;ratioP1;P2;durP2;ratioP2
71475;SDS011;59286;59.274;17.974;2023-05-31T00:01:52;3.63;;;1.30;;
71475;SDS011;59286;59.274;17.974;2023-05-31T00:04:17;3.70;;;1.13;;
71475;SDS011;59286;59.274;17.974;2023-05-31T00:06:42;2.70;;;1.10;;
71475;SDS011;59286;59.274;17.974;2023-05-31T00:09:09;2.85;;;1.30;;
71475;SDS011;59286;59.274;17.974;2023-05-31T00:11:35;2.53;;;1.10;;
71475;SDS011;59286;59.274;17.974;2023-05-31T00:14:03;2.13;;;1.00;;
71475;SDS011;59286;59.274;17.974;2023-05-31T00:16:29;2.38;;;1.08;;
71475;SDS011;59286;59.274;17.974;2023-05-31T00:18:54;3.50;;;1.00;;
71475;SDS011;59286;59.274;17.974;2023-05-31T00:21:20;4.43;;;1.23;;
71475;SDS011;59286;59.274;17.974;2023-05-31T00:23:45;2.97;;;1.00;;
71475;SDS011;59286;59.274;17.974;2023-05-31T00:26:10;4.18;;;1.23;;
71475;SDS011;59286;59.274;17.974;2023-05-31T00:28:36;3.33;;;1.10;;
71475;SDS011;59286;59.274;17.974;2023-05-31T00:31:01;4.53;;;1.33;;
71475;SDS011;59286;59.274;17.974;2023-05-31T00:33:27;4.25;;;1.10;;
71475;SDS011;59286;59.274;17.974;2023-05-31T00:35:52;2.58;;;1.00;;
71475;SDS011;59286;59.274;17.974;2023-05-31T00:38:18;2.95;;;1.10;;
71475;SDS011;59286;59.274;17.974;2023-05-31T00:40:44;2.53;;;1.20;;
71475;SDS011;59286;59.274;17.974;2023-05-31T00:43:09;2.55;;;1.20;;
71475;SDS011;59286;59.274;17.974;2023-05-31T00:45:35;2.03;;;0.85;;
71475;SDS011;59286;59.274;17.974;2023-05-31T00:48:01;2.15;;;0.88;;
71475;SDS011;59286;59.274;17.974;2023-05-31T00:50:26;2.22;;;1.15;;
71475;SDS011;59286;59.274;17.974;2023-05-31T00:52:53;2.70;;;1.10;;
71475;SDS011;59286;59.274;17.974;2023-05-31T00:55:20;1.65;;;0.82;;
71475;SDS011;59286;59.274;17.974;2023-05-31T00:57:46;4.55;;;1.33;;
71475;SDS011;59286;59.274;17.974;2023-05-31T01:00:12;5.68;;;1.30;;
71475;SDS011;59286;59.274;17.974;2023-05-31T01:02:40;2.03;;;1.35;;
71475;SDS011;59286;59.274;17.974;2023-05-31T01:05:06;3.10;;;1.00;;
71475;SDS011;59286;59.274;17.974;2023-05-31T01:07:32;5.70;;;1.15;;
71475;SDS011;59286;59.274;17.974;2023-05-31T01:09:58;4.13;;;1.08;;
71475;SDS011;59286;59.274;17.974;2023-05-31T01:15:25;6.22;;;1.08;;
71475;SDS011;59286;59.274;17.974;2023-05-31T01:20:32;2.60;;;1.33;;
71475;SDS011;59286;59.274;17.974;2023-05-31T01:28:21;2.25;;;0.80;;
71475;SDS011;59286;59.274;17.974;2023-05-31T01:30:49;2.45;;;0.80;;
71475;SDS011;59286;59.274;17.974;2023-05-31T01:33:16;1.50;;;0.80;;
71475;SDS011;59286;59.274;17.974;2023-05-31T01:35:42;3.50;;;0.90;;
71475;SDS011;59286;59.274;17.974;2023-05-31T01:38:08;2.40;;;0.85;;
71475;SDS011;59286;59.274;17.974;2023-05-31T01:40:33;1.40;;;0.80;;
71475;SDS011;59286;59.274;17.974;2023-05-31T01:43:00;2.30;;;0.70;;
71475;SDS011;59286;59.274;17.974;2023-05-31T01:45:27;2.05;;;0.88;;
71475;SDS011;59286;59.274;17.974;2023-05-31T01:47:55;3.22;;;1.00;;
71475;SDS011;59286;59.274;17.974;2023-05-31T01:50:25;1.67;;;0.80;;
71475;SDS011;59286;59.274;17.974;2023-05-31T01:52:51;5.00;;;1.02;;
71475;SDS011;59286;59.274;17.974;2023-05-31T01:55:17;1.35;;;0.80;;
71475;SDS011;59286;59.274;17.974;2023-05-31T01:57:43;3.15;;;0.85;;
71475;SDS011;59286;59.274;17.974;2023-05-31T02:00:11;6.95;;;1.00;;
71475;SDS011;59286;59.274;17.974;2023-05-31T02:02:37;5.22;;;0.80;;
71475;SDS011;59286;59.274;17.974;2023-05-31T02:05:07;2.25;;;1.00;;
71475;SDS011;59286;59.274;17.974;2023-05-31T02:07:36;2.88;;;0.90;;
71475;SDS011;59286;59.274;17.974;2023-05-31T02:10:02;1.38;;;0.88;;
71475;SDS011;59286;59.274;17.974;2023-05-31T02:12:28;3.97;;;0.90;;
71475;SDS011;59286;59.274;17.974;2023-05-31T02:14:54;1.98;;;0.90;;
71475;SDS011;59286;59.274;17.974;2023-05-31T02:17:19;2.08;;;0.90;;
71475;SDS011;59286;59.274;17.974;2023-05-31T02:19:51;1.00;;;0.70;;
71475;SDS011;59286;59.274;17.974;2023-05-31T02:22:18;2.30;;;1.02;;
71475;SDS011;59286;59.274;17.974;2023-05-31T02:24:44;3.38;;;0.98;;
71475;SDS011;59286;59.274;17.974;2023-05-31T02:27:10;2.92;;;0.65;;
71475;SDS011;59286;59.274;17.974;2023-05-31T02:29:36;1.10;;;0.77;;
71475;SDS011;59286;59.274;17.974;2023-05-31T02:32:02;1.95;;;0.90;;
71475;SDS011;59286;59.274;17.974;2023-05-31T02:34:27;3.17;;;0.70;;
71475;SDS011;59286;59.274;17.974;2023-05-31T02:36:53;2.38;;;0.90;;
71475;SDS011;59286;59.274;17.974;2023-05-31T02:39:18;1.92;;;0.80;;
71475;SDS011;59286;59.274;17.974;2023-05-31T02:41:44;1.17;;;0.95;;
71475;SDS011;59286;59.274;17.974;2023-05-31T02:44:10;0.70;;;0.55;;
71475;SDS011;59286;59.274;17.974;2023-05-31T02:46:35;0.90;;;0.60;;
71475;SDS011;59286;59.274;17.974;2023-05-31T02:49:01;3.17;;;1.08;;
71475;SDS011;59286;59.274;17.974;2023-05-31T02:51:26;2.42;;;0.80;;
71475;SDS011;59286;59.274;17.974;2023-05-31T02:53:51;3.85;;;0.82;;
71475;SDS011;59286;59.274;17.974;2023-05-31T02:56:17;3.83;;;0.63;;
71475;SDS011;59286;59.274;17.974;2023-05-31T02:58:43;2.05;;;0.70;;
71475;SDS011;59286;59.274;17.974;2023-05-31T03:01:08;2.53;;;0.57;;
71475;SDS011;59286;59.274;17.974;2023-05-31T03:03:34;2.25;;;0.80;;
71475;SDS011;59286;59.274;17.974;2023-05-31T03:05:59;1.80;;;0.95;;
71475;SDS011;59286;59.274;17.974;2023-05-31T03:08:25;0.80;;;0.68;;
71475;SDS011;59286;59.274;17.974;2023-05-31T03:10:50;1.77;;;0.70;;
71475;SDS011;59286;59.274;17.974;2023-05-31T03:13:16;1.85;;;0.80;;
71475;SDS011;59286;59.274;17.974;2023-05-31T03:15:41;2.22;;;0.85;;
71475;SDS011;59286;59.274;17.974;2023-05-31T03:18:06;0.98;;;0.70;;
71475;SDS011;59286;59.274;17.974;2023-05-31T03:20:32;0.95;;;0.68;;
71475;SDS011;59286;59.274;17.974;2023-05-31T03:22:58;2.00;;;0.85;;
71475;SDS011;59286;59.274;17.974;2023-05-31T03:25:24;1.05;;;0.60;;
71475;SDS011;59286;59.274;17.974;2023-05-31T03:27:50;3.80;;;0.55;;
71475;SDS011;59286;59.274;17.974;2023-05-31T03:30:15;2.35;;;0.70;;
71475;SDS011;59286;59.274;17.974;2023-05-31T03:32:41;2.35;;;0.70;;
71475;SDS011;59286;59.274;17.974;2023-05-31T03:35:07;0.93;;;0.70;;
71475;SDS011;59286;59.274;17.974;2023-05-31T03:37:33;1.33;;;0.52;;
71475;SDS011;59286;59.274;17.974;2023-05-31T03:39:59;3.92;;;1.02;;
71475;SDS011;59286;59.274;17.974;2023-05-31T03:42:24;3.25;;;0.60;;
71475;SDS011;59286;59.274;17.974;2023-05-31T03:44:50;2.55;;;0.60;;
71475;SDS011;59286;59.274;17.974;2023-05-31T03:47:15;2.88;;;0.60;;
71475;SDS011;59286;59.274;17.974;2023-05-31T03:49:41;1.85;;;0.70;;
71475;SDS011;59286;59.274;17.974;2023-05-31T03:52:07;2.90;;;0.63;;
71475;SDS011;59286;59.274;17.974;2023-05-31T03:54:37;3.25;;;0.60;;
71475;SDS011;59286;59.274;17.974;2023-05-31T03:57:03;1.73;;;0.52;;
71475;SDS011;59286;59.274;17.974;2023-05-31T03:59:28;0.98;;;0.60;;
71475;SDS011;59286;59.274;17.974;2023-05-31T04:01:54;2.60;;;0.50;;
71475;SDS011;59286;59.274;17.974;2023-05-31T04:04:20;1.73;;;0.60;;
71475;SDS011;59286;59.274;17.974;2023-05-31T04:06:45;0.63;;;0.40;;
71475;SDS011;59286;59.274;17.974;2023-05-31T04:09:10;1.33;;;0.40;;
71475;SDS011;59286;59.274;17.974;2023-05-31T04:11:36;1.55;;;0.47;;
71475;SDS011;59286;59.274;17.974;2023-05-31T04:14:02;1.45;;;0.45;;
71475;SDS011;59286;59.274;17.974;2023-05-31T04:16:28;1.60;;;0.40;;
71475;SDS011;59286;59.274;17.974;2023-05-31T04:18:53;2.05;;;0.50;;
71475;SDS011;59286;59.274;17.974;2023-05-31T04:21:18;1.23;;;0.40;;
71475;SDS011;59286;59.274;17.974;2023-05-31T04:23:44;0.98;;;0.38;;
71475;SDS011;59286;59.274;17.974;2023-05-31T04:26:10;1.77;;;0.60;;
71475;SDS011;59286;59.274;17.974;2023-05-31T04:28:43;2.28;;;0.40;;
71475;SDS011;59286;59.274;17.974;2023-05-31T04:31:09;0.85;;;0.50;;
71475;SDS011;59286;59.274;17.974;2023-05-31T04:33:34;1.08;;;0.45;;
71475;SDS011;59286;59.274;17.974;2023-05-31T04:36:00;1.70;;;0.38;;
71475;SDS011;59286;59.274;17.974;2023-05-31T04:38:28;2.58;;;0.40;;
71475;SDS011;59286;59.274;17.974;2023-05-31T04:40:55;2.45;;;0.40;;
71475;SDS011;59286;59.274;17.974;2023-05-31T04:43:22;1.15;;;0.40;;
71475;SDS011;59286;59.274;17.974;2023-05-31T04:45:48;2.40;;;0.40;;
71475;SDS011;59286;59.274;17.974;2023-05-31T04:48:14;1.27;;;0.55;;
71475;SDS011;59286;59.274;17.974;2023-05-31T04:50:41;0.65;;;0.32;;
71475;SDS011;59286;59.274;17.974;2023-05-31T04:53:07;4.20;;;0.63;;
71475;SDS011;59286;59.274;17.974;2023-05-31T04:55:32;0.98;;;0.43;;
71475;SDS011;59286;59.274;17.974;2023-05-31T04:57:58;0.63;;;0.32;;
71475;SDS011;59286;59.274;17.974;2023-05-31T05:00:23;0.63;;;0.30;;
71475;SDS011;59286;59.274;17.974;2023-05-31T05:02:49;1.08;;;0.50;;
71475;SDS011;59286;59.274;17.974;2023-05-31T05:05:15;1.40;;;0.57;;
71475;SDS011;59286;59.274;17.974;2023-05-31T05:07:41;1.02;;;0.40;;
71475;SDS011;59286;59.274;17.974;2023-05-31T05:10:06;1.52;;;0.75;;
71475;SDS011;59286;59.274;17.974;2023-05-31T05:12:32;3.60;;;0.40;;
71475;SDS011;59286;59.274;17.974;2023-05-31T05:14:58;1.63;;;0.50;;
71475;SDS011;59286;59.274;17.974;2023-05-31T05:17:23;1.38;;;0.63;;
71475;SDS011;59286;59.274;17.974;2023-05-31T05:19:49;3.85;;;0.45;;
71475;SDS011;59286;59.274;17.974;2023-05-31T05:22:15;1.85;;;0.55;;
71475;SDS011;59286;59.274;17.974;2023-05-31T05:24:41;1.63;;;0.50;;
71475;SDS011;59286;59.274;17.974;2023-05-31T05:27:06;3.17;;;0.65;;
71475;SDS011;59286;59.274;17.974;2023-05-31T05:29:32;1.48;;;0.75;;
71475;SDS011;59286;59.274;17.974;2023-05-31T05:31:58;1.48;;;0.68;;
71475;SDS011;59286;59.274;17.974;2023-05-31T05:34:23;3.65;;;0.63;;
71475;SDS011;59286;59.274;17.974;2023-05-31T05:36:48;2.78;;;0.52;;
71475;SDS011;59286;59.274;17.974;2023-05-31T05:39:14;1.65;;;0.50;;
71475;SDS011;59286;59.274;17.974;2023-05-31T05:41:39;4.45;;;0.57;;
71475;SDS011;59286;59.274;17.974;2023-05-31T05:44:04;2.53;;;0.70;;
71475;SDS011;59286;59.274;17.974;2023-05-31T05:46:30;0.98;;;0.45;;
71475;SDS011;59286;59.274;17.974;2023-05-31T05:48:55;4.25;;;0.77;;
71475;SDS011;59286;59.274;17.974;2023-05-31T05:51:22;2.97;;;0.60;;
71475;SDS011;59286;59.274;17.974;2023-05-31T05:53:48;2.83;;;0.65;;
71475;SDS011;59286;59.274;17.974;2023-05-31T05:56:16;2.28;;;0.60;;
71475;SDS011;59286;59.274;17.974;2023-05-31T05:58:47;2.20;;;0.60;;
71475;SDS011;59286;59.274;17.974;2023-05-31T06:01:13;2.05;;;0.70;;
71475;SDS011;59286;59.274;17.974;2023-05-31T06:03:49;4.03;;;0.80;;
71475;SDS011;59286;59.274;17.974;2023-05-31T06:06:14;6.20;;;0.88;;
71475;SDS011;59286;59.274;17.974;2023-05-31T06:08:42;2.88;;;0.80;;
71475;SDS011;59286;59.274;17.974;2023-05-31T06:11:11;3.78;;;1.13;;
71475;SDS011;59286;59.274;17.974;2023-05-31T06:13:36;1.20;;;0.90;;
71475;SDS011;59286;59.274;17.974;2023-05-31T06:16:03;5.63;;;0.70;;
71475;SDS011;59286;59.274;17.974;2023-05-31T06:18:29;1.70;;;0.75;;
71475;SDS011;59286;59.274;17.974;2023-05-31T06:20:55;2.97;;;0.73;;
71475;SDS011;59286;59.274;17.974;2023-05-31T06:23:20;3.17;;;0.77;;
71475;SDS011;59286;59.274;17.974;2023-05-31T06:25:46;3.85;;;0.90;;
71475;SDS011;59286;59.274;17.974;2023-05-31T06:28:11;1.65;;;0.60;;
71475;SDS011;59286;59.274;17.974;2023-05-31T06:30:36;3.80;;;1.00;;
71475;SDS011;59286;59.274;17.974;2023-05-31T06:33:02;1.75;;;0.70;;
71475;SDS011;59286;59.274;17.974;2023-05-31T06:35:27;1.52;;;0.57;;
71475;SDS011;59286;59.274;17.974;2023-05-31T06:37:53;1.02;;;0.50;;
71475;SDS011;59286;59.274;17.974;2023-05-31T06:40:19;1.88;;;0.68;;
71475;SDS011;59286;59.274;17.974;2023-05-31T06:42:44;1.60;;;0.60;;
71475;SDS011;59286;59.274;17.974;2023-05-31T06:45:10;2.70;;;0.70;;
71475;SDS011;59286;59.274;17.974;2023-05-31T06:47:35;2.38;;;0.60;;
71475;SDS011;59286;59.274;17.974;2023-05-31T06:50:00;2.97;;;0.90;;
71475;SDS011;59286;59.274;17.974;2023-05-31T06:52:27;1.45;;;0.60;;
71475;SDS011;59286;59.274;17.974;2023-05-31T06:54:53;1.40;;;0.60;;
71475;SDS011;59286;59.274;17.974;2023-05-31T06:57:19;6.53;;;0.70;;
71475;SDS011;59286;59.274;17.974;2023-05-31T06:59:44;2.17;;;0.35;;
71475;SDS011;59286;59.274;17.974;2023-05-31T07:02:10;2.35;;;0.50;;
71475;SDS011;59286;59.274;17.974;2023-05-31T07:04:35;1.42;;;0.80;;
71475;SDS011;59286;59.274;17.974;2023-05-31T07:07:01;2.10;;;0.50;;
71475;SDS011;59286;59.274;17.974;2023-05-31T07:09:27;5.45;;;0.52;;
71475;SDS011;59286;59.274;17.974;2023-05-31T07:11:53;5.05;;;1.05;;
71475;SDS011;59286;59.274;17.974;2023-05-31T07:14:19;3.30;;;0.77;;
71475;SDS011;59286;59.274;17.974;2023-05-31T07:16:48;4.60;;;0.70;;
71475;SDS011;59286;59.274;17.974;2023-05-31T07:19:14;3.92;;;0.60;;
71475;SDS011;59286;59.274;17.974;2023-05-31T07:21:39;0.55;;;0.45;;
71475;SDS011;59286;59.274;17.974;2023-05-31T07:24:05;1.33;;;0.60;;
71475;SDS011;59286;59.274;17.974;2023-05-31T07:26:31;1.20;;;0.60;;
71475;SDS011;59286;59.274;17.974;2023-05-31T07:28:56;1.60;;;0.50;;
71475;SDS011;59286;59.274;17.974;2023-05-31T07:31:25;1.25;;;0.50;;
71475;SDS011;59286;59.274;17.974;2023-05-31T07:33:51;2.65;;;0.60;;
71475;SDS011;59286;59.274;17.974;2023-05-31T07:36:17;1.08;;;0.50;;
71475;SDS011;59286;59.274;17.974;2023-05-31T07:38:43;2.78;;;0.40;;
71475;SDS011;59286;59.274;17.974;2023-05-31T07:41:08;0.85;;;0.50;;
71475;SDS011;59286;59.274;17.974;2023-05-31T07:43:34;1.30;;;0.50;;
71475;SDS011;59286;59.274;17.974;2023-05-31T07:46:00;1.75;;;0.55;;
71475;SDS011;59286;59.274;17.974;2023-05-31T07:48:25;7.45;;;0.50;;
71475;SDS011;59286;59.274;17.974;2023-05-31T07:50:51;3.67;;;0.50;;
71475;SDS011;59286;59.274;17.974;2023-05-31T07:53:16;1.02;;;0.60;;
71475;SDS011;59286;59.274;17.974;2023-05-31T07:55:43;1.42;;;0.68;;
71475;SDS011;59286;59.274;17.974;2023-05-31T07:58:09;4.28;;;0.85;;
71475;SDS011;59286;59.274;17.974;2023-05-31T08:00:36;5.88;;;0.60;;
71475;SDS011;59286;59.274;17.974;2023-05-31T08:03:02;2.97;;;0.50;;
71475;SDS011;59286;59.274;17.974;2023-05-31T08:05:28;7.93;;;0.68;;
71475;SDS011;59286;59.274;17.974;2023-05-31T08:07:53;1.88;;;0.50;;
71475;SDS011;59286;59.274;17.974;2023-05-31T08:10:18;2.75;;;0.50;;
71475;SDS011;59286;59.274;17.974;2023-05-31T08:12:44;4.35;;;0.60;;
71475;SDS011;59286;59.274;17.974;2023-05-31T08:15:09;1.90;;;0.60;;
71475;SDS011;59286;59.274;17.974;2023-05-31T08:17:36;3.13;;;0.57;;
71475;SDS011;59286;59.274;17.974;2023-05-31T08:20:02;4.45;;;0.60;;
71475;SDS011;59286;59.274;17.974;2023-05-31T08:22:32;4.05;;;0.63;;
71475;SDS011;59286;59.274;17.974;2023-05-31T08:24:58;1.88;;;0.60;;
71475;SDS011;59286;59.274;17.974;2023-05-31T08:27:24;1.10;;;0.52;;
71475;SDS011;59286;59.274;17.974;2023-05-31T08:29:50;1.15;;;0.43;;
71475;SDS011;59286;59.274;17.974;2023-05-31T08:32:15;4.47;;;0.63;;
71475;SDS011;59286;59.274;17.974;2023-05-31T08:34:41;2.17;;;0.70;;
71475;SDS011;59286;59.274;17.974;2023-05-31T08:37:08;1.77;;;0.73;;
71475;SDS011;59286;59.274;17.974;2023-05-31T08:39:34;5.85;;;0.77;;
71475;SDS011;59286;59.274;17.974;2023-05-31T08:42:00;1.40;;;0.70;;
71475;SDS011;59286;59.274;17.974;2023-05-31T08:44:28;1.63;;;0.70;;
71475;SDS011;59286;59.274;17.974;2023-05-31T08:52:17;3.78;;;0.60;;
71475;SDS011;59286;59.274;17.974;2023-05-31T08:54:43;3.47;;;0.60;;
71475;SDS011;59286;59.274;17.974;2023-05-31T08:57:09;2.78;;;0.40;;
71475;SDS011;59286;59.274;17.974;2023-05-31T08:59:36;1.45;;;1.00;;
71475;SDS011;59286;59.274;17.974;2023-05-31T09:02:03;0.93;;;0.40;;
71475;SDS011;59286;59.274;17.974;2023-05-31T09:04:28;3.05;;;0.60;;
71475;SDS011;59286;59.274;17.974;2023-05-31T09:06:54;4.28;;;0.68;;
71475;SDS011;59286;59.274;17.974;2023-05-31T09:09:20;1.70;;;0.65;;
71475;SDS011;59286;59.274;17.974;2023-05-31T09:11:45;2.38;;;0.70;;
71475;SDS011;59286;59.274;17.974;2023-05-31T09:14:11;4.32;;;0.60;;
71475;SDS011;59286;59.274;17.974;2023-05-31T09:16:37;2.42;;;0.70;;
71475;SDS011;59286;59.274;17.974;2023-05-31T09:19:03;5.47;;;0.60;;
71475;SDS011;59286;59.274;17.974;2023-05-31T09:21:37;0.98;;;0.40;;
71475;SDS011;59286;59.274;17.974;2023-05-31T09:24:07;1.15;;;0.60;;
71475;SDS011;59286;59.274;17.974;2023-05-31T09:26:33;2.60;;;0.65;;
71475;SDS011;59286;59.274;17.974;2023-05-31T09:28:59;3.72;;;0.50;;
71475;SDS011;59286;59.274;17.974;2023-05-31T09:31:24;1.20;;;0.60;;
71475;SDS011;59286;59.274;17.974;2023-05-31T09:33:51;0.95;;;0.60;;
71475;SDS011;59286;59.274;17.974;2023-05-31T09:36:29;1.77;;;0.45;;
71475;SDS011;59286;59.274;17.974;2023-05-31T09:39:03;7.07;;;0.88;;
71475;SDS011;59286;59.274;17.974;2023-05-31T09:41:30;4.22;;;0.60;;
71475;SDS011;59286;59.274;17.974;2023-05-31T09:43:57;3.08;;;0.70;;
71475;SDS011;59286;59.274;17.974;2023-05-31T09:46:23;4.25;;;0.80;;
71475;SDS011;59286;59.274;17.974;2023-05-31T09:49:05;1.77;;;0.65;;
71475;SDS011;59286;59.274;17.974;2023-05-31T09:51:34;2.75;;;0.47;;
71475;SDS011;59286;59.274;17.974;2023-05-31T09:54:00;4.55;;;0.70;;
71475;SDS011;59286;59.274;17.974;2023-05-31T09:56:35;3.47;;;0.50;;
71475;SDS011;59286;59.274;17.974;2023-05-31T09:59:01;2.42;;;0.73;;
71475;SDS011;59286;59.274;17.974;2023-05-31T10:01:28;6.57;;;0.70;;
71475;SDS011;59286;59.274;17.974;2023-05-31T10:03:55;4.93;;;0.70;;
71475;SDS011;59286;59.274;17.974;2023-05-31T10:06:20;5.03;;;0.60;;
71475;SDS011;59286;59.274;17.974;2023-05-31T10:08:46;1.63;;;0.60;;
71475;SDS011;59286;59.274;17.974;2023-05-31T10:11:14;3.90;;;0.63;;
71475;SDS011;59286;59.274;17.974;2023-05-31T10:13:42;5.13;;;0.70;;
71475;SDS011;59286;59.274;17.974;2023-05-31T10:16:11;1.85;;;0.57;;
71475;SDS011;59286;59.274;17.974;2023-05-31T10:18:43;1.40;;;0.55;;
71475;SDS011;59286;59.274;17.974;2023-05-31T10:21:17;2.97;;;0.70;;
71475;SDS011;59286;59.274;17.974;2023-05-31T10:23:55;1.55;;;0.57;;
71475;SDS011;59286;59.274;17.974;2023-05-31T10:26:31;3.50;;;0.60;;
71475;SDS011;59286;59.274;17.974;2023-05-31T10:29:13;3.17;;;0.80;;
71475;SDS011;59286;59.274;17.974;2023-05-31T10:31:47;2.90;;;0.90;;
71475;SDS011;59286;59.274;17.974;2023-05-31T10:34:19;2.13;;;0.75;;
71475;SDS011;59286;59.274;17.974;2023-05-31T10:36:45;2.22;;;0.63;;
71475;SDS011;59286;59.274;17.974;2023-05-31T10:39:35;0.75;;;0.60;;
71475;SDS011;59286;59.274;17.974;2023-05-31T10:42:09;1.25;;;0.63;;
71475;SDS011;59286;59.274;17.974;2023-05-31T10:45:01;1.27;;;0.57;;
71475;SDS011;59286;59.274;17.974;2023-05-31T10:47:55;1.75;;;0.80;;
71475;SDS011;59286;59.274;17.974;2023-05-31T10:51:00;1.20;;;0.60;;
71475;SDS011;59286;59.274;17.974;2023-05-31T10:53:28;3.55;;;0.80;;
71475;SDS011;59286;59.274;17.974;2023-05-31T10:56:02;1.02;;;0.60;;
71475;SDS011;59286;59.274;17.974;2023-05-31T10:58:36;3.13;;;0.70;;
71475;SDS011;59286;59.274;17.974;2023-05-31T11:01:06;1.42;;;0.70;;
71475;SDS011;59286;59.274;17.974;2023-05-31T11:03:43;3.05;;;0.68;;
71475;SDS011;59286;59.274;17.974;2023-05-31T11:06:11;2.72;;;0.80;;
71475;SDS011;59286;59.274;17.974;2023-05-31T11:08:58;3.38;;;0.60;;
71475;SDS011;59286;59.274;17.974;2023-05-31T11:11:26;5.75;;;0.68;;
71475;SDS011;59286;59.274;17.974;2023-05-31T11:14:04;2.17;;;0.60;;
71475;SDS011;59286;59.274;17.974;2023-05-31T11:19:25;1.67;;;0.63;;
71475;SDS011;59286;59.274;17.974;2023-05-31T11:21:52;1.45;;;0.50;;
71475;SDS011;59286;59.274;17.974;2023-05-31T11:24:24;5.07;;;0.75;;
71475;SDS011;59286;59.274;17.974;2023-05-31T11:27:11;1.75;;;0.68;;
71475;SDS011;59286;59.274;17.974;2023-05-31T11:32:09;1.77;;;0.80;;
71475;SDS011;59286;59.274;17.974;2023-05-31T11:34:35;3.72;;;0.60;;
71475;SDS011;59286;59.274;17.974;2023-05-31T11:37:14;4.13;;;0.70;;
71475;SDS011;59286;59.274;17.974;2023-05-31T11:39:43;0.93;;;0.68;;
71475;SDS011;59286;59.274;17.974;2023-05-31T11:42:09;1.40;;;0.43;;
71475;SDS011;59286;59.274;17.974;2023-05-31T11:44:35;2.13;;;0.77;;
71475;SDS011;59286;59.274;17.974;2023-05-31T11:47:07;3.35;;;0.70;;
71475;SDS011;59286;59.274;17.974;2023-05-31T11:49:35;2.95;;;0.75;;
71475;SDS011;59286;59.274;17.974;2023-05-31T11:52:01;2.38;;;0.60;;
71475;SDS011;59286;59.274;17.974;2023-05-31T11:54:28;1.38;;;0.70;;
71475;SDS011;59286;59.274;17.974;2023-05-31T11:56:59;1.70;;;0.63;;
71475;SDS011;59286;59.274;17.974;2023-05-31T11:59:26;2.00;;;0.63;;
71475;SDS011;59286;59.274;17.974;2023-05-31T12:01:55;3.55;;;0.63;;
71475;SDS011;59286;59.274;17.974;2023-05-31T12:04:21;2.13;;;0.70;;
71475;SDS011;59286;59.274;17.974;2023-05-31T12:06:53;1.45;;;0.50;;
71475;SDS011;59286;59.274;17.974;2023-05-31T12:09:20;1.83;;;0.70;;
71475;SDS011;59286;59.274;17.974;2023-05-31T12:11:48;3.55;;;0.85;;
71475;SDS011;59286;59.274;17.974;2023-05-31T12:14:14;1.83;;;0.70;;
71475;SDS011;59286;59.274;17.974;2023-05-31T12:16:40;2.25;;;0.70;;
71475;SDS011;59286;59.274;17.974;2023-05-31T12:19:10;3.92;;;0.63;;
71475;SDS011;59286;59.274;17.974;2023-05-31T12:21:36;2.67;;;0.68;;
71475;SDS011;59286;59.274;17.974;2023-05-31T12:24:05;1.73;;;0.68;;
71475;SDS011;59286;59.274;17.974;2023-05-31T12:26:36;1.40;;;0.60;;
71475;SDS011;59286;59.274;17.974;2023-05-31T12:29:02;2.05;;;0.70;;
71475;SDS011;59286;59.274;17.974;2023-05-31T12:31:27;3.05;;;0.70;;
71475;SDS011;59286;59.274;17.974;2023-05-31T12:33:57;2.25;;;0.75;;
71475;SDS011;59286;59.274;17.974;2023-05-31T12:36:27;6.28;;;0.95;;
71475;SDS011;59286;59.274;17.974;2023-05-31T12:38:53;0.80;;;0.60;;
71475;SDS011;59286;59.274;17.974;2023-05-31T12:41:20;2.25;;;0.70;;
71475;SDS011;59286;59.274;17.974;2023-05-31T12:43:47;1.35;;;0.70;;
71475;SDS011;59286;59.274;17.974;2023-05-31T12:46:16;4.90;;;0.80;;
71475;SDS011;59286;59.274;17.974;2023-05-31T12:48:46;0.90;;;0.60;;
71475;SDS011;59286;59.274;17.974;2023-05-31T12:51:12;2.33;;;0.50;;
71475;SDS011;59286;59.274;17.974;2023-05-31T12:53:38;2.97;;;0.60;;
71475;SDS011;59286;59.274;17.974;2023-05-31T12:56:05;3.30;;;0.60;;
71475;SDS011;59286;59.274;17.974;2023-05-31T12:58:30;1.88;;;0.60;;
71475;SDS011;59286;59.274;17.974;2023-05-31T13:00:55;1.33;;;0.68;;
71475;SDS011;59286;59.274;17.974;2023-05-31T13:03:21;2.35;;;0.52;;
71475;SDS011;59286;59.274;17.974;2023-05-31T13:05:46;2.60;;;0.70;;
71475;SDS011;59286;59.274;17.974;2023-05-31T13:08:11;1.80;;;0.47;;
71475;SDS011;59286;59.274;17.974;2023-05-31T13:10:37;4.07;;;0.60;;
71475;SDS011;59286;59.274;17.974;2023-05-31T13:13:03;2.90;;;0.70;;
71475;SDS011;59286;59.274;17.974;2023-05-31T13:15:28;1.50;;;0.50;;
71475;SDS011;59286;59.274;17.974;2023-05-31T13:17:54;2.17;;;0.47;;
71475;SDS011;59286;59.274;17.974;2023-05-31T13:20:19;2.40;;;0.60;;
71475;SDS011;59286;59.274;17.974;2023-05-31T13:22:45;3.33;;;0.50;;
71475;SDS011;59286;59.274;17.974;2023-05-31T13:25:10;2.47;;;0.60;;
71475;SDS011;59286;59.274;17.974;2023-05-31T13:27:38;0.85;;;0.50;;
71475;SDS011;59286;59.274;17.974;2023-05-31T13:30:05;1.20;;;0.40;;
71475;SDS011;59286;59.274;17.974;2023-05-31T13:32:32;1.42;;;0.60;;
71475;SDS011;59286;59.274;17.974;2023-05-31T13:34:57;1.52;;;0.50;;
71475;SDS011;59286;59.274;17.974;2023-05-31T13:37:25;2.67;;;0.60;;
71475;SDS011;59286;59.274;17.974;2023-05-31T13:39:51;0.57;;;0.40;;
71475;SDS011;59286;59.274;17.974;2023-05-31T13:42:16;2.10;;;0.50;;
71475;SDS011;59286;59.274;17.974;2023-05-31T13:44:42;1.13;;;0.47;;
71475;SDS011;59286;59.274;17.974;2023-05-31T13:47:07;2.55;;;0.60;;
71475;SDS011;59286;59.274;17.974;2023-05-31T13:49:33;0.95;;;0.55;;
71475;SDS011;59286;59.274;17.974;2023-05-31T13:51:59;1.45;;;0.55;;
71475;SDS011;59286;59.274;17.974;2023-05-31T13:54:24;1.00;;;0.45;;
71475;SDS011;59286;59.274;17.974;2023-05-31T13:56:50;2.80;;;0.60;;
71475;SDS011;59286;59.274;17.974;2023-05-31T13:59:15;1.55;;;0.45;;
71475;SDS011;59286;59.274;17.974;2023-05-31T14:01:41;1.02;;;0.40;;
71475;SDS011;59286;59.274;17.974;2023-05-31T14:04:06;6.35;;;0.55;;
71475;SDS011;59286;59.274;17.974;2023-05-31T14:06:32;1.48;;;0.52;;
71475;SDS011;59286;59.274;17.974;2023-05-31T14:08:57;0.65;;;0.38;;
71475;SDS011;59286;59.274;17.974;2023-05-31T14:11:23;2.47;;;0.40;;
71475;SDS011;59286;59.274;17.974;2023-05-31T14:13:49;1.25;;;0.50;;
71475;SDS011;59286;59.274;17.974;2023-05-31T14:16:16;0.95;;;0.40;;
71475;SDS011;59286;59.274;17.974;2023-05-31T14:18:41;1.50;;;0.47;;
71475;SDS011;59286;59.274;17.974;2023-05-31T14:21:06;4.60;;;0.60;;
71475;SDS011;59286;59.274;17.974;2023-05-31T14:23:32;0.57;;;0.50;;
71475;SDS011;59286;59.274;17.974;2023-05-31T14:25:57;1.60;;;0.55;;
71475;SDS011;59286;59.274;17.974;2023-05-31T14:28:23;3.15;;;0.73;;
71475;SDS011;59286;59.274;17.974;2023-05-31T14:30:48;1.90;;;0.50;;
71475;SDS011;59286;59.274;17.974;2023-05-31T14:33:13;1.15;;;0.55;;
71475;SDS011;59286;59.274;17.974;2023-05-31T14:35:39;0.60;;;0.40;;
71475;SDS011;59286;59.274;17.974;2023-05-31T14:38:04;1.30;;;0.40;;
71475;SDS011;59286;59.274;17.974;2023-05-31T14:40:30;2.80;;;0.40;;
71475;SDS011;59286;59.274;17.974;2023-05-31T14:42:55;2.05;;;0.50;;
71475;SDS011;59286;59.274;17.974;2023-05-31T14:45:20;3.67;;;0.60;;
71475;SDS011;59286;59.274;17.974;2023-05-31T14:47:46;3.92;;;0.47;;
71475;SDS011;59286;59.274;17.974;2023-05-31T14:50:11;1.17;;;0.40;;
71475;SDS011;59286;59.274;17.974;2023-05-31T14:52:37;1.38;;;0.40;;
71475;SDS011;59286;59.274;17.974;2023-05-31T14:55:02;3.97;;;0.60;;